sensor_id;sensor_type;location;lat;lon;timestamp;temperature;humidity
9393;DHT22;4736;52.508;13.422;2023-04-09T00:02:12;4.70;68.20
9393;DHT22;4736;52.508;13.422;2023-04-09T00:05:15;4.70;68.20
9393;DHT22;4736;52.508;13.422;2023-04-09T00:08:18;4.70;68.30
9393;DHT22;4736;52.508;13.422;2023-04-09T00:11:21;4.70;68.30
9393;DHT22;4736;52.508;13.422;2023-04-09T00:14:26;4.60;68.40
9393;DHT22;4736;52.508;13.422;2023-04-09T00:17:29;4.60;68.50
9393;DHT22;4736;52.508;13.422;2023-04-09T00:20:33;4.50;68.60
9393;DHT22;4736;52.508;13.422;2023-04-09T00:23:37;4.50;68.60
9393;DHT22;4736;52.508;13.422;2023-04-09T00:26:40;4.50;68.70
9393;DHT22;4736;52.508;13.422;2023-04-09T00:29:45;4.50;68.80
9393;DHT22;4736;52.508;13.422;2023-04-09T00:32:48;4.50;69.00
9393;DHT22;4736;52.508;13.422;2023-04-09T00:35:51;4.50;69.00
9393;DHT22;4736;52.508;13.422;2023-04-09T00:38:55;4.50;69.10
9393;DHT22;4736;52.508;13.422;2023-04-09T00:42:00;4.50;69.20
9393;DHT22;4736;52.508;13.422;2023-04-09T00:45:07;4.40;69.40
9393;DHT22;4736;52.508;13.422;2023-04-09T00:48:11;4.40;69.60
9393;DHT22;4736;52.508;13.422;2023-04-09T00:51:14;4.40;69.70
9393;DHT22;4736;52.508;13.422;2023-04-09T00:54:17;4.40;69.80
9393;DHT22;4736;52.508;13.422;2023-04-09T00:57:21;4.30;69.90
9393;DHT22;4736;52.508;13.422;2023-04-09T01:00:28;4.30;69.90
9393;DHT22;4736;52.508;13.422;2023-04-09T01:03:32;4.20;70.10
9393;DHT22;4736;52.508;13.422;2023-04-09T01:06:40;4.20;70.20
9393;DHT22;4736;52.508;13.422;2023-04-09T01:09:50;4.20;70.20
9393;DHT22;4736;52.508;13.422;2023-04-09T01:13:03;4.20;70.40
9393;DHT22;4736;52.508;13.422;2023-04-09T01:16:11;4.20;70.40
9393;DHT22;4736;52.508;13.422;2023-04-09T01:19:29;4.10;70.50
9393;DHT22;4736;52.508;13.422;2023-04-09T01:22:47;4.10;70.60
9393;DHT22;4736;52.508;13.422;2023-04-09T01:26:00;4.10;70.70
9393;DHT22;4736;52.508;13.422;2023-04-09T01:29:06;4.10;70.60
9393;DHT22;4736;52.508;13.422;2023-04-09T01:32:11;4.00;70.70
9393;DHT22;4736;52.508;13.422;2023-04-09T01:35:15;4.00;70.70
9393;DHT22;4736;52.508;13.422;2023-04-09T01:38:20;4.00;70.70
9393;DHT22;4736;52.508;13.422;2023-04-09T01:41:25;4.00;70.80
9393;DHT22;4736;52.508;13.422;2023-04-09T01:44:33;4.00;70.90
9393;DHT22;4736;52.508;13.422;2023-04-09T01:47:38;3.90;71.00
9393;DHT22;4736;52.508;13.422;2023-04-09T01:50:42;4.00;71.00
9393;DHT22;4736;52.508;13.422;2023-04-09T01:53:45;3.90;71.00
9393;DHT22;4736;52.508;13.422;2023-04-09T01:56:49;3.90;71.00
9393;DHT22;4736;52.508;13.422;2023-04-09T01:59:54;3.90;71.00
9393;DHT22;4736;52.508;13.422;2023-04-09T02:03:04;3.90;71.10
9393;DHT22;4736;52.508;13.422;2023-04-09T02:06:13;3.90;71.10
9393;DHT22;4736;52.508;13.422;2023-04-09T02:09:19;3.80;71.10
9393;DHT22;4736;52.508;13.422;2023-04-09T02:12:24;3.80;71.20
9393;DHT22;4736;52.508;13.422;2023-04-09T02:15:31;3.80;71.20
9393;DHT22;4736;52.508;13.422;2023-04-09T02:18:37;3.70;71.20
9393;DHT22;4736;52.508;13.422;2023-04-09T02:21:40;3.70;71.20
9393;DHT22;4736;52.508;13.422;2023-04-09T02:24:44;3.70;71.40
9393;DHT22;4736;52.508;13.422;2023-04-09T02:27:48;3.60;71.40
9393;DHT22;4736;52.508;13.422;2023-04-09T02:30:52;3.60;71.50
9393;DHT22;4736;52.508;13.422;2023-04-09T02:33:55;3.60;71.50
9393;DHT22;4736;52.508;13.422;2023-04-09T02:36:59;3.60;71.60
9393;DHT22;4736;52.508;13.422;2023-04-09T02:40:02;3.50;71.60
9393;DHT22;4736;52.508;13.422;2023-04-09T02:43:06;3.60;71.70
9393;DHT22;4736;52.508;13.422;2023-04-09T02:46:11;3.50;71.80
9393;DHT22;4736;52.508;13.422;2023-04-09T02:49:14;3.50;71.80
9393;DHT22;4736;52.508;13.422;2023-04-09T02:52:19;3.50;71.90
9393;DHT22;4736;52.508;13.422;2023-04-09T02:55:25;3.50;72.00
9393;DHT22;4736;52.508;13.422;2023-04-09T02:58:28;3.50;72.10
9393;DHT22;4736;52.508;13.422;2023-04-09T03:01:36;3.50;72.20
9393;DHT22;4736;52.508;13.422;2023-04-09T03:04:39;3.50;72.20
9393;DHT22;4736;52.508;13.422;2023-04-09T03:07:42;3.50;72.30
9393;DHT22;4736;52.508;13.422;2023-04-09T03:10:45;3.40;72.30
9393;DHT22;4736;52.508;13.422;2023-04-09T03:13:49;3.40;72.40
9393;DHT22;4736;52.508;13.422;2023-04-09T03:16:53;3.40;72.40
9393;DHT22;4736;52.508;13.422;2023-04-09T03:19:56;3.30;72.50
9393;DHT22;4736;52.508;13.422;2023-04-09T03:23:00;3.30;72.50
9393;DHT22;4736;52.508;13.422;2023-04-09T03:26:04;3.30;72.50
9393;DHT22;4736;52.508;13.422;2023-04-09T03:29:07;3.30;72.50
9393;DHT22;4736;52.508;13.422;2023-04-09T03:32:12;3.30;72.50
9393;DHT22;4736;52.508;13.422;2023-04-09T03:35:18;3.30;72.50
9393;DHT22;4736;52.508;13.422;2023-04-09T03:38:21;3.30;72.60
9393;DHT22;4736;52.508;13.422;2023-04-09T03:41:25;3.30;72.90
9393;DHT22;4736;52.508;13.422;2023-04-09T03:44:28;3.30;72.90
9393;DHT22;4736;52.508;13.422;2023-04-09T03:47:35;3.30;73.00
9393;DHT22;4736;52.508;13.422;2023-04-09T03:50:38;3.40;73.20
9393;DHT22;4736;52.508;13.422;2023-04-09T03:53:42;3.50;73.90
9393;DHT22;4736;52.508;13.422;2023-04-09T03:56:45;3.60;74.70
9393;DHT22;4736;52.508;13.422;2023-04-09T03:59:50;3.60;74.90
9393;DHT22;4736;52.508;13.422;2023-04-09T04:02:55;3.60;74.80
9393;DHT22;4736;52.508;13.422;2023-04-09T04:06:02;3.60;75.00
9393;DHT22;4736;52.508;13.422;2023-04-09T04:09:05;3.60;75.10
9393;DHT22;4736;52.508;13.422;2023-04-09T04:12:09;3.60;75.20
9393;DHT22;4736;52.508;13.422;2023-04-09T04:15:12;3.50;75.50
9393;DHT22;4736;52.508;13.422;2023-04-09T04:18:16;3.50;75.70
9393;DHT22;4736;52.508;13.422;2023-04-09T04:21:20;3.50;75.60
9393;DHT22;4736;52.508;13.422;2023-04-09T04:24:23;3.50;75.80
9393;DHT22;4736;52.508;13.422;2023-04-09T04:27:26;3.30;75.90
9393;DHT22;4736;52.508;13.422;2023-04-09T04:30:29;3.30;76.20
9393;DHT22;4736;52.508;13.422;2023-04-09T04:33:33;3.30;76.40
9393;DHT22;4736;52.508;13.422;2023-04-09T04:36:39;3.30;76.50
9393;DHT22;4736;52.508;13.422;2023-04-09T04:39:42;3.30;76.70
9393;DHT22;4736;52.508;13.422;2023-04-09T04:42:45;3.30;77.00
9393;DHT22;4736;52.508;13.422;2023-04-09T04:45:48;3.30;77.40
9393;DHT22;4736;52.508;13.422;2023-04-09T04:48:55;3.30;77.50
9393;DHT22;4736;52.508;13.422;2023-04-09T04:51:58;3.30;77.90
9393;DHT22;4736;52.508;13.422;2023-04-09T04:55:01;3.30;78.40
9393;DHT22;4736;52.508;13.422;2023-04-09T04:58:05;3.50;78.30
9393;DHT22;4736;52.508;13.422;2023-04-09T05:01:08;3.50;78.30
9393;DHT22;4736;52.508;13.422;2023-04-09T05:04:12;3.60;78.50
9393;DHT22;4736;52.508;13.422;2023-04-09T05:07:15;3.70;78.40
9393;DHT22;4736;52.508;13.422;2023-04-09T05:10:18;3.70;78.50
9393;DHT22;4736;52.508;13.422;2023-04-09T05:13:22;3.90;78.60
9393;DHT22;4736;52.508;13.422;2023-04-09T05:16:25;3.90;78.60
9393;DHT22;4736;52.508;13.422;2023-04-09T05:19:30;4.00;78.60
9393;DHT22;4736;52.508;13.422;2023-04-09T05:22:33;4.00;78.70
9393;DHT22;4736;52.508;13.422;2023-04-09T05:25:37;4.10;78.70
9393;DHT22;4736;52.508;13.422;2023-04-09T05:28:40;4.20;78.60
9393;DHT22;4736;52.508;13.422;2023-04-09T05:31:43;4.20;78.70
9393;DHT22;4736;52.508;13.422;2023-04-09T05:34:47;4.30;78.60
9393;DHT22;4736;52.508;13.422;2023-04-09T05:37:50;4.40;78.60
9393;DHT22;4736;52.508;13.422;2023-04-09T05:40:54;4.40;78.60
9393;DHT22;4736;52.508;13.422;2023-04-09T05:43:57;4.50;78.60
9393;DHT22;4736;52.508;13.422;2023-04-09T05:47:01;4.50;78.70
9393;DHT22;4736;52.508;13.422;2023-04-09T05:50:06;4.50;78.60
9393;DHT22;4736;52.508;13.422;2023-04-09T05:53:10;4.70;78.70
9393;DHT22;4736;52.508;13.422;2023-04-09T05:56:13;4.60;78.30
9393;DHT22;4736;52.508;13.422;2023-04-09T05:59:17;4.60;78.50
9393;DHT22;4736;52.508;13.422;2023-04-09T06:02:20;4.70;78.40
9393;DHT22;4736;52.508;13.422;2023-04-09T06:05:25;4.70;78.50
9393;DHT22;4736;52.508;13.422;2023-04-09T06:08:29;4.70;78.70
9393;DHT22;4736;52.508;13.422;2023-04-09T06:11:32;4.70;78.70
9393;DHT22;4736;52.508;13.422;2023-04-09T06:14:35;4.90;78.90
9393;DHT22;4736;52.508;13.422;2023-04-09T06:17:38;5.00;78.80
9393;DHT22;4736;52.508;13.422;2023-04-09T06:20:43;5.10;78.70
9393;DHT22;4736;52.508;13.422;2023-04-09T06:23:46;5.30;78.50
9393;DHT22;4736;52.508;13.422;2023-04-09T06:26:49;5.30;77.70
9393;DHT22;4736;52.508;13.422;2023-04-09T06:29:52;5.30;77.10
9393;DHT22;4736;52.508;13.422;2023-04-09T06:32:55;5.30;76.50
9393;DHT22;4736;52.508;13.422;2023-04-09T06:36:00;5.30;76.20
9393;DHT22;4736;52.508;13.422;2023-04-09T06:39:03;5.30;75.70
9393;DHT22;4736;52.508;13.422;2023-04-09T06:42:06;5.40;76.00
9393;DHT22;4736;52.508;13.422;2023-04-09T06:45:09;5.50;75.70
9393;DHT22;4736;52.508;13.422;2023-04-09T06:48:13;5.60;75.20
9393;DHT22;4736;52.508;13.422;2023-04-09T06:51:17;5.60;75.10
9393;DHT22;4736;52.508;13.422;2023-04-09T06:54:20;5.70;75.40
9393;DHT22;4736;52.508;13.422;2023-04-09T06:57:24;5.90;74.90
9393;DHT22;4736;52.508;13.422;2023-04-09T07:00:27;6.00;74.50
9393;DHT22;4736;52.508;13.422;2023-04-09T07:03:31;6.10;74.10
9393;DHT22;4736;52.508;13.422;2023-04-09T07:06:35;6.20;74.10
9393;DHT22;4736;52.508;13.422;2023-04-09T07:09:39;6.20;73.20
9393;DHT22;4736;52.508;13.422;2023-04-09T07:12:43;6.30;73.50
9393;DHT22;4736;52.508;13.422;2023-04-09T07:15:46;6.50;73.20
9393;DHT22;4736;52.508;13.422;2023-04-09T07:18:49;6.60;73.00
9393;DHT22;4736;52.508;13.422;2023-04-09T07:21:54;6.70;72.10
9393;DHT22;4736;52.508;13.422;2023-04-09T07:24:57;6.90;72.10
9393;DHT22;4736;52.508;13.422;2023-04-09T07:28:00;7.00;71.30
9393;DHT22;4736;52.508;13.422;2023-04-09T07:31:03;6.90;71.20
9393;DHT22;4736;52.508;13.422;2023-04-09T07:34:06;7.00;71.20
9393;DHT22;4736;52.508;13.422;2023-04-09T07:37:11;7.00;71.60
9393;DHT22;4736;52.508;13.422;2023-04-09T07:40:14;7.00;71.60
9393;DHT22;4736;52.508;13.422;2023-04-09T07:43:17;7.10;71.10
9393;DHT22;4736;52.508;13.422;2023-04-09T07:46:23;7.00;70.80
9393;DHT22;4736;52.508;13.422;2023-04-09T07:49:26;7.00;71.40
9393;DHT22;4736;52.508;13.422;2023-04-09T07:52:31;7.00;71.40
9393;DHT22;4736;52.508;13.422;2023-04-09T07:55:34;7.00;70.90
9393;DHT22;4736;52.508;13.422;2023-04-09T07:58:37;7.10;71.10
9393;DHT22;4736;52.508;13.422;2023-04-09T08:01:40;7.20;71.00
9393;DHT22;4736;52.508;13.422;2023-04-09T08:04:43;7.20;71.20
9393;DHT22;4736;52.508;13.422;2023-04-09T08:07:50;7.20;71.00
9393;DHT22;4736;52.508;13.422;2023-04-09T08:10:53;7.50;70.60
9393;DHT22;4736;52.508;13.422;2023-04-09T08:13:56;7.60;70.00
9393;DHT22;4736;52.508;13.422;2023-04-09T08:17:02;7.60;70.30
9393;DHT22;4736;52.508;13.422;2023-04-09T08:20:06;7.70;69.90
9393;DHT22;4736;52.508;13.422;2023-04-09T08:23:11;7.60;69.90
9393;DHT22;4736;52.508;13.422;2023-04-09T08:26:14;7.70;69.80
9393;DHT22;4736;52.508;13.422;2023-04-09T08:29:17;7.60;69.90
9393;DHT22;4736;52.508;13.422;2023-04-09T08:32:20;7.70;69.90
9393;DHT22;4736;52.508;13.422;2023-04-09T08:35:23;7.80;69.20
9393;DHT22;4736;52.508;13.422;2023-04-09T08:38:28;7.70;69.60
9393;DHT22;4736;52.508;13.422;2023-04-09T08:41:31;7.70;69.20
9393;DHT22;4736;52.508;13.422;2023-04-09T08:44:34;7.80;68.90
9393;DHT22;4736;52.508;13.422;2023-04-09T08:47:39;7.80;68.40
9393;DHT22;4736;52.508;13.422;2023-04-09T08:50:45;7.70;69.30
9393;DHT22;4736;52.508;13.422;2023-04-09T08:53:54;8.00;69.00
9393;DHT22;4736;52.508;13.422;2023-04-09T08:56:57;8.10;68.70
9393;DHT22;4736;52.508;13.422;2023-04-09T09:00:00;8.40;68.00
9393;DHT22;4736;52.508;13.422;2023-04-09T09:03:06;8.30;68.20
9393;DHT22;4736;52.508;13.422;2023-04-09T09:06:19;8.40;69.00
9393;DHT22;4736;52.508;13.422;2023-04-09T09:09:25;8.90;68.40
9393;DHT22;4736;52.508;13.422;2023-04-09T09:12:32;9.40;66.20
9393;DHT22;4736;52.508;13.422;2023-04-09T09:15:35;9.60;65.00
9393;DHT22;4736;52.508;13.422;2023-04-09T09:18:39;9.50;65.10
9393;DHT22;4736;52.508;13.422;2023-04-09T09:21:54;9.50;65.40
9393;DHT22;4736;52.508;13.422;2023-04-09T09:24:58;9.50;65.30
9393;DHT22;4736;52.508;13.422;2023-04-09T09:28:06;9.20;65.70
9393;DHT22;4736;52.508;13.422;2023-04-09T09:31:10;9.20;65.90
9393;DHT22;4736;52.508;13.422;2023-04-09T09:34:14;9.40;65.90
9393;DHT22;4736;52.508;13.422;2023-04-09T09:37:25;9.70;65.40
9393;DHT22;4736;52.508;13.422;2023-04-09T09:40:30;10.10;64.70
9393;DHT22;4736;52.508;13.422;2023-04-09T09:43:39;10.50;64.00
9393;DHT22;4736;52.508;13.422;2023-04-09T09:46:43;10.80;63.30
9393;DHT22;4736;52.508;13.422;2023-04-09T09:49:47;10.70;62.20
9393;DHT22;4736;52.508;13.422;2023-04-09T09:52:53;10.60;62.80
9393;DHT22;4736;52.508;13.422;2023-04-09T09:56:03;10.70;63.00
9393;DHT22;4736;52.508;13.422;2023-04-09T09:59:12;10.60;63.00
9393;DHT22;4736;52.508;13.422;2023-04-09T10:02:18;10.80;63.30
9393;DHT22;4736;52.508;13.422;2023-04-09T10:05:23;10.90;63.20
9393;DHT22;4736;52.508;13.422;2023-04-09T10:08:29;10.70;62.80
9393;DHT22;4736;52.508;13.422;2023-04-09T10:11:36;10.80;62.40
9393;DHT22;4736;52.508;13.422;2023-04-09T10:14:40;10.70;62.70
9393;DHT22;4736;52.508;13.422;2023-04-09T10:17:44;10.60;63.20
9393;DHT22;4736;52.508;13.422;2023-04-09T10:20:52;10.80;63.10
9393;DHT22;4736;52.508;13.422;2023-04-09T10:23:57;11.00;62.70
9393;DHT22;4736;52.508;13.422;2023-04-09T10:27:10;11.10;62.40
9393;DHT22;4736;52.508;13.422;2023-04-09T10:30:33;11.10;62.60
9393;DHT22;4736;52.508;13.422;2023-04-09T10:33:37;11.20;62.10
9393;DHT22;4736;52.508;13.422;2023-04-09T10:36:42;11.10;62.30
9393;DHT22;4736;52.508;13.422;2023-04-09T10:39:46;11.40;61.90
9393;DHT22;4736;52.508;13.422;2023-04-09T10:42:52;11.50;61.40
9393;DHT22;4736;52.508;13.422;2023-04-09T10:45:56;11.40;61.70
9393;DHT22;4736;52.508;13.422;2023-04-09T10:49:14;11.40;61.40
9393;DHT22;4736;52.508;13.422;2023-04-09T10:52:28;11.10;61.80
9393;DHT22;4736;52.508;13.422;2023-04-09T10:55:36;11.30;61.50
9393;DHT22;4736;52.508;13.422;2023-04-09T10:58:41;11.50;61.20
9393;DHT22;4736;52.508;13.422;2023-04-09T11:01:51;11.50;60.20
9393;DHT22;4736;52.508;13.422;2023-04-09T11:05:03;11.50;61.40
9393;DHT22;4736;52.508;13.422;2023-04-09T11:08:10;11.70;61.40
9393;DHT22;4736;52.508;13.422;2023-04-09T11:11:13;11.90;60.60
9393;DHT22;4736;52.508;13.422;2023-04-09T11:14:20;11.90;60.50
9393;DHT22;4736;52.508;13.422;2023-04-09T11:17:24;11.90;60.50
9393;DHT22;4736;52.508;13.422;2023-04-09T11:20:28;11.90;60.80
9393;DHT22;4736;52.508;13.422;2023-04-09T11:23:32;12.00;60.20
9393;DHT22;4736;52.508;13.422;2023-04-09T11:26:35;12.20;60.00
9393;DHT22;4736;52.508;13.422;2023-04-09T11:29:40;12.30;60.00
9393;DHT22;4736;52.508;13.422;2023-04-09T11:32:43;12.40;59.70
9393;DHT22;4736;52.508;13.422;2023-04-09T11:35:47;12.50;60.20
9393;DHT22;4736;52.508;13.422;2023-04-09T11:38:50;12.50;59.00
9393;DHT22;4736;52.508;13.422;2023-04-09T11:41:54;12.60;59.40
9393;DHT22;4736;52.508;13.422;2023-04-09T11:45:00;12.50;58.90
9393;DHT22;4736;52.508;13.422;2023-04-09T11:48:10;12.50;59.00
9393;DHT22;4736;52.508;13.422;2023-04-09T11:51:14;12.50;59.00
9393;DHT22;4736;52.508;13.422;2023-04-09T11:54:17;12.50;58.70
9393;DHT22;4736;52.508;13.422;2023-04-09T11:57:20;12.40;59.10
9393;DHT22;4736;52.508;13.422;2023-04-09T12:00:25;12.50;59.00
9393;DHT22;4736;52.508;13.422;2023-04-09T12:03:28;12.80;57.90
9393;DHT22;4736;52.508;13.422;2023-04-09T12:06:39;12.50;58.30
9393;DHT22;4736;52.508;13.422;2023-04-09T12:09:47;12.70;58.40
9393;DHT22;4736;52.508;13.422;2023-04-09T12:12:50;12.90;58.10
9393;DHT22;4736;52.508;13.422;2023-04-09T12:15:54;12.80;57.80
9393;DHT22;4736;52.508;13.422;2023-04-09T12:19:00;13.10;58.00
9393;DHT22;4736;52.508;13.422;2023-04-09T12:22:03;13.30;57.00
9393;DHT22;4736;52.508;13.422;2023-04-09T12:25:06;13.30;57.00
9393;DHT22;4736;52.508;13.422;2023-04-09T12:28:11;13.30;57.00
9393;DHT22;4736;52.508;13.422;2023-04-09T12:31:17;13.20;57.00
9393;DHT22;4736;52.508;13.422;2023-04-09T12:34:20;13.30;57.00
9393;DHT22;4736;52.508;13.422;2023-04-09T12:37:23;13.20;57.20
9393;DHT22;4736;52.508;13.422;2023-04-09T12:40:26;13.10;57.50
9393;DHT22;4736;52.508;13.422;2023-04-09T12:43:29;13.20;57.60
9393;DHT22;4736;52.508;13.422;2023-04-09T12:46:34;13.00;57.30
9393;DHT22;4736;52.508;13.422;2023-04-09T12:49:37;13.10;57.60
9393;DHT22;4736;52.508;13.422;2023-04-09T12:52:43;13.10;57.90
9393;DHT22;4736;52.508;13.422;2023-04-09T12:55:46;13.30;57.50
9393;DHT22;4736;52.508;13.422;2023-04-09T12:58:49;13.60;57.00
9393;DHT22;4736;52.508;13.422;2023-04-09T13:01:54;13.60;57.40
9393;DHT22;4736;52.508;13.422;2023-04-09T13:04:57;13.80;57.00
9393;DHT22;4736;52.508;13.422;2023-04-09T13:08:00;14.00;56.10
9393;DHT22;4736;52.508;13.422;2023-04-09T13:11:04;14.10;55.80
9393;DHT22;4736;52.508;13.422;2023-04-09T13:14:07;14.10;55.80
9393;DHT22;4736;52.508;13.422;2023-04-09T13:17:15;13.90;56.10
9393;DHT22;4736;52.508;13.422;2023-04-09T13:20:18;13.90;56.70
9393;DHT22;4736;52.508;13.422;2023-04-09T13:23:21;14.00;56.50
9393;DHT22;4736;52.508;13.422;2023-04-09T13:26:24;14.10;56.40
9393;DHT22;4736;52.508;13.422;2023-04-09T13:29:27;14.30;56.30
9393;DHT22;4736;52.508;13.422;2023-04-09T13:32:32;14.30;56.10
9393;DHT22;4736;52.508;13.422;2023-04-09T13:35:35;14.50;55.90
9393;DHT22;4736;52.508;13.422;2023-04-09T13:38:38;14.60;55.40
9393;DHT22;4736;52.508;13.422;2023-04-09T13:41:41;14.60;55.80
9393;DHT22;4736;52.508;13.422;2023-04-09T13:44:44;14.70;55.20
9393;DHT22;4736;52.508;13.422;2023-04-09T13:47:48;14.70;55.00
9393;DHT22;4736;52.508;13.422;2023-04-09T13:50:52;14.70;55.20
9393;DHT22;4736;52.508;13.422;2023-04-09T13:53:55;14.80;54.00
9393;DHT22;4736;52.508;13.422;2023-04-09T13:56:58;14.60;54.80
9393;DHT22;4736;52.508;13.422;2023-04-09T14:00:01;14.50;55.70
9393;DHT22;4736;52.508;13.422;2023-04-09T14:03:07;14.60;55.70
9393;DHT22;4736;52.508;13.422;2023-04-09T14:06:13;14.70;55.50
9393;DHT22;4736;52.508;13.422;2023-04-09T14:09:16;14.90;55.30
9393;DHT22;4736;52.508;13.422;2023-04-09T14:12:19;15.00;54.50
9393;DHT22;4736;52.508;13.422;2023-04-09T14:15:22;15.10;54.70
9393;DHT22;4736;52.508;13.422;2023-04-09T14:18:26;15.20;54.70
9393;DHT22;4736;52.508;13.422;2023-04-09T14:21:30;15.20;54.60
9393;DHT22;4736;52.508;13.422;2023-04-09T14:24:33;15.30;54.10
9393;DHT22;4736;52.508;13.422;2023-04-09T14:27:42;15.30;54.10
9393;DHT22;4736;52.508;13.422;2023-04-09T14:30:45;15.20;54.00
9393;DHT22;4736;52.508;13.422;2023-04-09T14:33:49;15.00;54.70
9393;DHT22;4736;52.508;13.422;2023-04-09T14:36:52;15.10;54.40
9393;DHT22;4736;52.508;13.422;2023-04-09T14:39:56;15.20;54.70
9393;DHT22;4736;52.508;13.422;2023-04-09T14:42:59;15.30;54.60
9393;DHT22;4736;52.508;13.422;2023-04-09T14:46:02;15.40;54.50
9393;DHT22;4736;52.508;13.422;2023-04-09T14:49:08;15.40;54.70
9393;DHT22;4736;52.508;13.422;2023-04-09T14:52:11;15.50;54.50
9393;DHT22;4736;52.508;13.422;2023-04-09T14:55:14;15.60;54.20
9393;DHT22;4736;52.508;13.422;2023-04-09T14:58:18;15.60;53.80
9393;DHT22;4736;52.508;13.422;2023-04-09T15:01:21;15.70;53.50
9393;DHT22;4736;52.508;13.422;2023-04-09T15:04:26;15.70;53.40
9393;DHT22;4736;52.508;13.422;2023-04-09T15:07:29;15.60;53.70
9393;DHT22;4736;52.508;13.422;2023-04-09T15:10:32;15.60;54.00
9393;DHT22;4736;52.508;13.422;2023-04-09T15:13:37;15.50;54.50
9393;DHT22;4736;52.508;13.422;2023-04-09T15:16:40;15.60;54.40
9393;DHT22;4736;52.508;13.422;2023-04-09T15:19:45;15.60;54.10
9393;DHT22;4736;52.508;13.422;2023-04-09T15:22:48;15.40;54.30
9393;DHT22;4736;52.508;13.422;2023-04-09T15:25:52;15.30;54.40
9393;DHT22;4736;52.508;13.422;2023-04-09T15:29:00;15.10;54.80
9393;DHT22;4736;52.508;13.422;2023-04-09T15:32:04;15.20;54.80
9393;DHT22;4736;52.508;13.422;2023-04-09T15:35:08;15.30;54.60
9393;DHT22;4736;52.508;13.422;2023-04-09T15:38:14;15.40;54.70
9393;DHT22;4736;52.508;13.422;2023-04-09T15:41:22;15.30;54.80
9393;DHT22;4736;52.508;13.422;2023-04-09T15:44:28;15.00;55.30
9393;DHT22;4736;52.508;13.422;2023-04-09T15:47:31;15.00;55.20
9393;DHT22;4736;52.508;13.422;2023-04-09T15:50:35;14.70;55.80
9393;DHT22;4736;52.508;13.422;2023-04-09T15:53:42;14.50;56.20
9393;DHT22;4736;52.508;13.422;2023-04-09T15:56:45;14.40;55.90
9393;DHT22;4736;52.508;13.422;2023-04-09T15:59:48;14.20;56.20
9393;DHT22;4736;52.508;13.422;2023-04-09T16:02:52;14.10;56.40
9393;DHT22;4736;52.508;13.422;2023-04-09T16:05:57;13.90;56.70
9393;DHT22;4736;52.508;13.422;2023-04-09T16:09:02;13.80;56.70
9393;DHT22;4736;52.508;13.422;2023-04-09T16:12:05;13.60;56.60
9393;DHT22;4736;52.508;13.422;2023-04-09T16:15:09;13.50;56.80
9393;DHT22;4736;52.508;13.422;2023-04-09T16:18:14;13.30;57.10
9393;DHT22;4736;52.508;13.422;2023-04-09T16:21:19;13.30;57.20
9393;DHT22;4736;52.508;13.422;2023-04-09T16:24:22;13.10;57.30
9393;DHT22;4736;52.508;13.422;2023-04-09T16:27:25;13.00;57.60
9393;DHT22;4736;52.508;13.422;2023-04-09T16:30:28;12.90;57.90
9393;DHT22;4736;52.508;13.422;2023-04-09T16:33:32;12.80;58.20
9393;DHT22;4736;52.508;13.422;2023-04-09T16:36:37;12.70;58.40
9393;DHT22;4736;52.508;13.422;2023-04-09T16:39:42;12.60;58.30
9393;DHT22;4736;52.508;13.422;2023-04-09T16:42:47;12.50;58.40
9393;DHT22;4736;52.508;13.422;2023-04-09T16:45:50;12.40;58.30
9393;DHT22;4736;52.508;13.422;2023-04-09T16:48:54;12.30;58.40
9393;DHT22;4736;52.508;13.422;2023-04-09T16:51:58;12.10;58.40
9393;DHT22;4736;52.508;13.422;2023-04-09T16:55:01;12.00;58.50
9393;DHT22;4736;52.508;13.422;2023-04-09T16:58:04;12.00;58.10
9393;DHT22;4736;52.508;13.422;2023-04-09T17:01:08;11.90;58.20
9393;DHT22;4736;52.508;13.422;2023-04-09T17:04:11;11.90;58.40
9393;DHT22;4736;52.508;13.422;2023-04-09T17:07:16;11.80;58.50
9393;DHT22;4736;52.508;13.422;2023-04-09T17:10:19;11.70;58.50
9393;DHT22;4736;52.508;13.422;2023-04-09T17:13:22;11.60;58.40
9393;DHT22;4736;52.508;13.422;2023-04-09T17:16:25;11.60;58.30
9393;DHT22;4736;52.508;13.422;2023-04-09T17:19:28;11.50;58.50
9393;DHT22;4736;52.508;13.422;2023-04-09T17:22:33;11.50;58.80
9393;DHT22;4736;52.508;13.422;2023-04-09T17:25:37;11.40;59.00
9393;DHT22;4736;52.508;13.422;2023-04-09T17:28:40;11.30;59.60
9393;DHT22;4736;52.508;13.422;2023-04-09T17:31:43;11.30;60.20
9393;DHT22;4736;52.508;13.422;2023-04-09T17:34:47;11.10;60.60
9393;DHT22;4736;52.508;13.422;2023-04-09T17:37:51;11.10;61.00
9393;DHT22;4736;52.508;13.422;2023-04-09T17:40:54;11.00;61.60
9393;DHT22;4736;52.508;13.422;2023-04-09T17:43:57;11.00;62.00
9393;DHT22;4736;52.508;13.422;2023-04-09T17:47:00;10.90;62.30
9393;DHT22;4736;52.508;13.422;2023-04-09T17:50:04;10.80;62.20
9393;DHT22;4736;52.508;13.422;2023-04-09T17:53:09;10.80;62.50
9393;DHT22;4736;52.508;13.422;2023-04-09T17:56:14;10.70;62.90
9393;DHT22;4736;52.508;13.422;2023-04-09T17:59:18;10.60;63.00
9393;DHT22;4736;52.508;13.422;2023-04-09T18:02:21;10.50;63.30
9393;DHT22;4736;52.508;13.422;2023-04-09T18:05:24;10.50;63.30
9393;DHT22;4736;52.508;13.422;2023-04-09T18:08:29;10.40;63.50
9393;DHT22;4736;52.508;13.422;2023-04-09T18:11:32;10.30;63.70
9393;DHT22;4736;52.508;13.422;2023-04-09T18:14:35;10.30;63.70
9393;DHT22;4736;52.508;13.422;2023-04-09T18:17:38;10.20;63.80
9393;DHT22;4736;52.508;13.422;2023-04-09T18:20:41;10.10;63.90
9393;DHT22;4736;52.508;13.422;2023-04-09T18:23:46;10.10;64.20
9393;DHT22;4736;52.508;13.422;2023-04-09T18:26:49;10.00;64.40
9393;DHT22;4736;52.508;13.422;2023-04-09T18:29:52;10.00;64.40
9393;DHT22;4736;52.508;13.422;2023-04-09T18:32:56;9.80;64.60
9393;DHT22;4736;52.508;13.422;2023-04-09T18:36:00;9.80;64.90
9393;DHT22;4736;52.508;13.422;2023-04-09T18:39:05;9.70;65.20
9393;DHT22;4736;52.508;13.422;2023-04-09T18:42:09;9.60;65.40
9393;DHT22;4736;52.508;13.422;2023-04-09T18:45:12;9.60;65.70
9393;DHT22;4736;52.508;13.422;2023-04-09T18:48:16;9.50;65.90
9393;DHT22;4736;52.508;13.422;2023-04-09T18:51:19;9.50;66.10
9393;DHT22;4736;52.508;13.422;2023-04-09T18:54:24;9.40;66.20
9393;DHT22;4736;52.508;13.422;2023-04-09T18:57:30;9.40;66.40
9393;DHT22;4736;52.508;13.422;2023-04-09T19:00:34;9.40;66.60
9393;DHT22;4736;52.508;13.422;2023-04-09T19:03:39;9.40;66.80
9393;DHT22;4736;52.508;13.422;2023-04-09T19:06:44;9.20;66.90
9393;DHT22;4736;52.508;13.422;2023-04-09T19:09:51;9.20;67.20
9393;DHT22;4736;52.508;13.422;2023-04-09T19:12:55;9.20;67.40
9393;DHT22;4736;52.508;13.422;2023-04-09T19:15:58;9.10;67.60
9393;DHT22;4736;52.508;13.422;2023-04-09T19:19:01;9.00;67.70
9393;DHT22;4736;52.508;13.422;2023-04-09T19:22:05;9.00;67.90
9393;DHT22;4736;52.508;13.422;2023-04-09T19:25:09;9.00;68.20
9393;DHT22;4736;52.508;13.422;2023-04-09T19:28:12;8.90;68.50
9393;DHT22;4736;52.508;13.422;2023-04-09T19:31:15;8.90;68.60
9393;DHT22;4736;52.508;13.422;2023-04-09T19:34:19;8.80;68.80
9393;DHT22;4736;52.508;13.422;2023-04-09T19:37:22;8.80;69.00
9393;DHT22;4736;52.508;13.422;2023-04-09T19:40:29;8.80;69.10
9393;DHT22;4736;52.508;13.422;2023-04-09T19:43:32;8.70;69.30
9393;DHT22;4736;52.508;13.422;2023-04-09T19:46:39;8.70;69.50
9393;DHT22;4736;52.508;13.422;2023-04-09T19:49:42;8.60;69.70
9393;DHT22;4736;52.508;13.422;2023-04-09T19:52:45;8.60;69.80
9393;DHT22;4736;52.508;13.422;2023-04-09T19:55:50;8.60;70.00